createdAt,value
2018-03-22T00:00:11.647Z,64.08
2018-03-22T00:01:10.427Z,64.04
2018-03-22T00:02:10.435Z,64.16
2018-03-22T00:03:10.430Z,64.53
2018-03-22T00:04:10.447Z,64.80
2018-03-22T00:05:10.456Z,64.92
2018-03-22T00:06:10.454Z,64.86
2018-03-22T00:07:10.371Z,64.91
2018-03-22T00:08:10.383Z,64.76
2018-03-22T00:09:10.478Z,64.76
2018-03-22T00:10:10.291Z,64.85
2018-03-22T00:11:10.402Z,64.78
2018-03-22T00:12:10.408Z,64.96
2018-03-22T00:13:10.402Z,64.91
2018-03-22T00:14:10.411Z,64.93
2018-03-22T00:15:10.435Z,65.03
2018-03-22T00:16:10.334Z,64.76
2018-03-22T00:17:09.987Z,64.95
2018-03-22T00:18:10.442Z,65.06
2018-03-22T00:19:10.442Z,65.21
2018-03-22T00:20:10.451Z,65.01
2018-03-22T00:21:10.462Z,64.92
2018-03-22T00:22:10.399Z,65.19
2018-03-22T00:23:10.411Z,65.35
2018-03-22T00:24:10.381Z,65.55
2018-03-22T00:25:10.392Z,65.71
2018-03-22T00:26:10.431Z,65.92
2018-03-22T00:27:10.448Z,65.90
2018-03-22T00:28:10.410Z,66.11
2018-03-22T00:29:10.462Z,66.09
2018-03-22T00:30:10.422Z,66.07
2018-03-22T00:31:10.471Z,65.87
2018-03-22T00:32:10.484Z,65.87
2018-03-22T00:33:10.448Z,65.55
2018-03-22T00:34:10.452Z,65.96
2018-03-22T00:35:10.478Z,65.98
2018-03-22T00:36:10.461Z,65.95
2018-03-22T00:37:10.381Z,65.69
2018-03-22T00:38:10.368Z,65.96
2018-03-22T00:39:10.376Z,65.62
2018-03-22T00:40:10.390Z,65.55
2018-03-22T00:41:10.397Z,65.70
2018-03-22T00:42:10.414Z,65.79
2018-03-22T00:43:10.409Z,65.58
2018-03-22T00:44:10.319Z,65.50
2018-03-22T00:45:10.328Z,65.78
2018-03-22T00:46:10.342Z,65.27
2018-03-22T00:47:10.440Z,65.30
2018-03-22T00:48:10.439Z,65.03
2018-03-22T00:49:10.354Z,64.98
2018-03-22T00:50:10.464Z,65.12
2018-03-22T00:51:10.475Z,65.25
2018-03-22T00:52:10.375Z,65.62
2018-03-22T00:53:10.384Z,65.71
2018-03-22T00:54:10.392Z,66.01
2018-03-22T00:55:10.393Z,66.39
2018-03-22T00:56:10.407Z,66.46
2018-03-22T00:57:10.415Z,66.68
2018-03-22T00:58:10.417Z,67.17
2018-03-22T00:59:10.428Z,67.32
2018-03-22T01:00:11.757Z,66.91
2018-03-22T01:01:10.431Z,66.31
2018-03-22T01:02:10.453Z,66.32
2018-03-22T01:03:10.444Z,66.46
2018-03-22T01:04:10.450Z,65.85
2018-03-22T01:05:10.361Z,65.69
2018-03-22T01:06:10.478Z,66.10
2018-03-22T01:07:10.392Z,66.01
2018-03-22T01:08:10.387Z,66.12
2018-03-22T01:09:10.390Z,65.64
2018-03-22T01:10:10.397Z,66.20
2018-03-22T01:11:10.402Z,65.68
2018-03-22T01:12:10.417Z,65.47
2018-03-22T01:13:10.427Z,65.01
2018-03-22T01:14:10.423Z,64.85
2018-03-22T01:15:10.433Z,65.02
2018-03-22T01:16:10.449Z,64.95
2018-03-22T01:17:10.452Z,64.36
2018-03-22T01:18:10.458Z,64.82
2018-03-22T01:19:10.468Z,64.54
2018-03-22T01:20:10.474Z,64.61
2018-03-22T01:21:10.477Z,64.52
2018-03-22T01:22:10.495Z,64.74
2018-03-22T01:23:10.415Z,64.81
2018-03-22T01:24:10.405Z,64.15
2018-03-22T01:25:10.405Z,64.09
2018-03-22T01:26:10.410Z,64.28
2018-03-22T01:27:10.412Z,64.46
2018-03-22T01:28:10.438Z,64.68
2018-03-22T01:29:10.438Z,64.46
2018-03-22T01:30:10.446Z,64.70
2018-03-22T01:31:10.451Z,64.91
2018-03-22T01:32:10.466Z,65.25
2018-03-22T01:33:10.461Z,65.47
2018-03-22T01:34:10.472Z,65.61
2018-03-22T01:35:10.486Z,65.18
2018-03-22T01:36:10.486Z,65.32
2018-03-22T01:37:10.383Z,64.64
2018-03-22T01:38:10.502Z,64.86
2018-03-22T01:39:10.409Z,64.50
2018-03-22T01:40:10.427Z,64.34
2018-03-22T01:41:10.421Z,64.65
2018-03-22T01:42:10.460Z,64.66
2018-03-22T01:43:10.435Z,65.12
2018-03-22T01:44:10.444Z,65.49
2018-03-22T01:45:10.445Z,65.02
2018-03-22T01:46:10.449Z,64.50
2018-03-22T01:47:10.465Z,64.51
2018-03-22T01:48:10.479Z,64.04
2018-03-22T01:49:10.468Z,63.29
2018-03-22T01:50:10.487Z,62.36
2018-03-22T01:51:13.362Z,62.28
2018-03-22T01:52:10.402Z,61.02
2018-03-22T01:53:10.402Z,61.43
2018-03-22T01:54:10.416Z,61.25
2018-03-22T01:55:10.426Z,61.36
2018-03-22T01:56:10.420Z,61.05
2018-03-22T01:57:10.430Z,60.98
2018-03-22T01:58:10.465Z,61.06
2018-03-22T01:59:10.445Z,60.81
2018-03-22T02:00:11.694Z,61.17
2018-03-22T02:01:10.462Z,61.46
2018-03-22T02:02:10.460Z,62.07
2018-03-22T02:03:10.473Z,61.48
2018-03-22T02:04:10.486Z,61.89
2018-03-22T02:05:10.402Z,61.73
2018-03-22T02:06:10.493Z,61.74
2018-03-22T02:07:10.406Z,62.04
2018-03-22T02:08:10.419Z,61.49
2018-03-22T02:09:10.414Z,61.86
2018-03-22T02:10:10.484Z,61.44
2018-03-22T02:11:10.433Z,62.01
2018-03-22T02:12:10.442Z,61.90
2018-03-22T02:13:10.446Z,61.04
2018-03-22T02:14:10.464Z,61.54
2018-03-22T02:15:11.510Z,60.33
2018-03-22T02:16:10.466Z,60.75
2018-03-22T02:17:10.469Z,61.54
2018-03-22T02:18:10.514Z,61.33
2018-03-22T02:19:10.485Z,61.75
2018-03-22T02:20:10.503Z,62.01
2018-03-22T02:21:10.495Z,61.78
2018-03-22T02:22:10.402Z,61.96
2018-03-22T02:23:10.325Z,61.86
2018-03-22T02:24:10.437Z,62.14
2018-03-22T02:25:10.425Z,62.04
2018-03-22T02:26:10.433Z,62.65
2018-03-22T02:27:10.453Z,62.93
2018-03-22T02:28:10.450Z,63.16
2018-03-22T02:29:10.461Z,63.26
2018-03-22T02:30:10.476Z,63.51
2018-03-22T02:31:10.370Z,63.59
2018-03-22T02:32:13.109Z,63.54
2018-03-22T02:33:10.398Z,63.71
2018-03-22T02:34:10.490Z,63.80
2018-03-22T02:35:23.079Z,63.84
2018-03-22T02:36:23.598Z,63.79
2018-03-22T02:37:24.156Z,63.38
2018-03-22T02:38:22.542Z,63.54
2018-03-22T02:39:29.506Z,63.67
2018-03-22T02:40:10.458Z,63.69
2018-03-22T02:41:10.434Z,63.28
2018-03-22T02:42:11.170Z,63.23
2018-03-22T02:43:10.464Z,62.77
2018-03-22T02:44:10.463Z,62.76
2018-03-22T02:45:10.471Z,62.87
2018-03-22T02:46:10.489Z,62.78
2018-03-22T02:47:10.487Z,62.64
2018-03-22T02:48:10.499Z,62.28
2018-03-22T02:49:10.505Z,62.35
2018-03-22T02:50:10.516Z,62.49
2018-03-22T02:51:10.569Z,62.51
2018-03-22T02:52:10.426Z,62.76
2018-03-22T02:53:10.440Z,62.99
2018-03-22T02:54:10.435Z,63.05
2018-03-22T02:55:10.442Z,62.81
2018-03-22T02:56:10.454Z,63.18
2018-03-22T02:57:10.449Z,63.40
2018-03-22T02:58:10.461Z,62.59
2018-03-22T02:59:10.505Z,62.71
2018-03-22T03:00:11.635Z,62.46
2018-03-22T03:01:10.483Z,62.58
2018-03-22T03:02:10.488Z,62.43
2018-03-22T03:03:10.494Z,62.11
2018-03-22T03:04:10.512Z,62.51
2018-03-22T03:05:10.514Z,62.84
2018-03-22T03:06:10.515Z,62.92
2018-03-22T03:07:10.531Z,62.61
2018-03-22T03:08:10.428Z,63.05
2018-03-22T03:09:10.445Z,62.88
2018-03-22T03:10:10.443Z,62.70
2018-03-22T03:11:10.453Z,62.87
2018-03-22T03:12:10.461Z,62.68
2018-03-22T03:13:10.490Z,62.58
2018-03-22T03:14:13.369Z,62.68
2018-03-22T03:15:10.579Z,62.79
2018-03-22T03:16:10.483Z,62.96
2018-03-22T03:17:10.493Z,62.97
2018-03-22T03:18:10.516Z,63.08
2018-03-22T03:19:10.519Z,63.27
2018-03-22T03:20:10.518Z,63.64
2018-03-22T03:21:10.530Z,63.80
2018-03-22T03:22:10.531Z,64.10
2018-03-22T03:23:10.435Z,64.39
2018-03-22T03:24:10.444Z,64.41
2018-03-22T03:25:15.205Z,64.63
2018-03-22T03:26:10.456Z,64.41
2018-03-22T03:27:10.467Z,64.57
2018-03-22T03:28:10.491Z,64.65
2018-03-22T03:29:10.495Z,64.66
2018-03-22T03:30:10.490Z,64.77
2018-03-22T03:31:10.494Z,64.87
2018-03-22T03:32:10.501Z,64.98
2018-03-22T03:33:10.540Z,65.05
2018-03-22T03:34:10.526Z,65.21
2018-03-22T03:35:10.521Z,65.27
2018-03-22T03:36:12.642Z,65.71
2018-03-22T03:37:10.543Z,66.15
2018-03-22T03:38:10.488Z,66.22
2018-03-22T03:39:10.454Z,66.49
2018-03-22T03:40:10.458Z,66.67
2018-03-22T03:41:10.561Z,66.73
2018-03-22T03:42:10.474Z,66.47
2018-03-22T03:43:10.482Z,66.58
2018-03-22T03:44:10.492Z,66.86
2018-03-22T03:45:10.495Z,66.85
2018-03-22T03:46:10.522Z,67.33
2018-03-22T03:47:10.511Z,67.41
2018-03-22T03:48:10.538Z,67.47
2018-03-22T03:49:10.531Z,67.57
2018-03-22T03:50:10.542Z,67.58
2018-03-22T03:51:10.531Z,67.68
2018-03-22T03:52:10.545Z,67.92
2018-03-22T03:53:10.449Z,67.72
2018-03-22T03:54:10.466Z,67.65
2018-03-22T03:55:10.462Z,67.57
2018-03-22T03:56:10.369Z,67.76
2018-03-22T03:57:10.487Z,67.93
2018-03-22T03:58:10.489Z,68.25
2018-03-22T03:59:10.400Z,68.36
2018-03-22T04:00:11.746Z,68.31
2018-03-22T04:01:10.506Z,68.35
2018-03-22T04:02:10.515Z,68.45
2018-03-22T04:03:10.530Z,68.42
2018-03-22T04:04:10.529Z,68.43
2018-03-22T04:05:10.536Z,68.62
2018-03-22T04:06:10.559Z,68.64
2018-03-22T04:07:10.558Z,68.47
2018-03-22T04:08:10.483Z,68.05
2018-03-22T04:09:10.462Z,67.64
2018-03-22T04:10:10.484Z,67.50
2018-03-22T04:11:10.487Z,67.19
2018-03-22T04:12:10.485Z,66.86
2018-03-22T04:13:10.489Z,66.80
2018-03-22T04:14:10.494Z,66.43
2018-03-22T04:15:11.652Z,65.81
2018-03-22T04:16:10.533Z,65.91
2018-03-22T04:17:10.523Z,65.42
2018-03-22T04:18:10.462Z,65.68
2018-03-22T04:19:10.574Z,65.57
2018-03-22T04:20:10.477Z,65.72
2018-03-22T04:21:10.589Z,65.74
2018-03-22T04:22:10.593Z,65.16
2018-03-22T04:23:10.497Z,65.08
2018-03-22T04:24:12.678Z,65.11
2018-03-22T04:25:10.473Z,64.98
2018-03-22T04:26:10.480Z,64.69
2018-03-22T04:27:10.482Z,64.46
2018-03-22T04:28:10.494Z,64.14
2018-03-22T04:29:10.505Z,64.06
2018-03-22T04:30:10.525Z,63.49
2018-03-22T04:31:10.561Z,63.22
2018-03-22T04:32:10.561Z,63.06
2018-03-22T04:33:10.569Z,63.48
2018-03-22T04:34:10.580Z,65.11
2018-03-22T04:35:10.565Z,67.94
2018-03-22T04:36:10.589Z,69.19
2018-03-22T04:37:10.557Z,70.18
2018-03-22T04:38:10.467Z,70.78
2018-03-22T04:39:10.509Z,70.83
2018-03-22T04:40:10.519Z,70.93
2018-03-22T04:41:10.539Z,70.85
2018-03-22T04:42:10.493Z,71.08
2018-03-22T04:43:10.494Z,71.18
2018-03-22T04:44:10.505Z,70.80
2018-03-22T04:45:10.517Z,70.17
2018-03-22T04:46:10.522Z,69.45
2018-03-22T04:47:10.536Z,69.48
2018-03-22T04:48:10.542Z,69.19
2018-03-22T04:49:10.537Z,68.67
2018-03-22T04:50:10.553Z,68.08
2018-03-22T04:51:10.561Z,67.67
2018-03-22T04:52:10.567Z,67.36
2018-03-22T04:53:10.474Z,66.50
2018-03-22T04:54:10.483Z,65.70
2018-03-22T04:55:10.481Z,65.42
2018-03-22T04:56:10.489Z,65.02
2018-03-22T04:57:10.498Z,64.50
2018-03-22T04:58:10.517Z,63.99
2018-03-22T04:59:10.533Z,63.67
2018-03-22T05:00:11.777Z,63.33
2018-03-22T05:01:10.538Z,63.48
2018-03-22T05:02:10.542Z,63.76
2018-03-22T05:03:10.540Z,63.84
2018-03-22T05:04:10.566Z,63.83
2018-03-22T05:05:10.553Z,63.61
2018-03-22T05:06:10.566Z,63.37
2018-03-22T05:07:10.569Z,63.24
2018-03-22T05:08:10.479Z,63.15
2018-03-22T05:09:10.522Z,63.32
2018-03-22T05:10:10.538Z,63.45
2018-03-22T05:11:10.536Z,62.82
2018-03-22T05:12:10.541Z,62.99
2018-03-22T05:13:10.554Z,63.21
2018-03-22T05:14:10.557Z,63.22
2018-03-22T05:15:10.567Z,62.61
2018-03-22T05:16:10.577Z,62.49
2018-03-22T05:17:10.579Z,62.74
2018-03-22T05:18:10.584Z,62.99
2018-03-22T05:19:10.599Z,62.69
2018-03-22T05:20:10.603Z,62.82
2018-03-22T05:21:10.611Z,62.88
2018-03-22T05:22:10.398Z,63.14
2018-03-22T05:23:12.949Z,62.51
2018-03-22T05:24:10.498Z,62.57
2018-03-22T05:25:10.303Z,62.76
2018-03-22T05:26:10.501Z,61.90
2018-03-22T05:27:10.523Z,61.41
2018-03-22T05:28:10.417Z,61.51
2018-03-22T05:29:10.527Z,61.57
2018-03-22T05:30:10.545Z,60.62
2018-03-22T05:31:10.532Z,60.31
2018-03-22T05:32:10.546Z,60.22
2018-03-22T05:33:11.174Z,59.28
2018-03-22T05:34:10.581Z,58.63
2018-03-22T05:35:10.675Z,58.51
2018-03-22T05:36:10.586Z,57.07
2018-03-22T05:37:10.578Z,57.57
2018-03-22T05:38:10.385Z,57.38
2018-03-22T05:39:10.518Z,56.83
2018-03-22T05:40:10.501Z,56.60
2018-03-22T05:41:10.409Z,54.84
2018-03-22T05:42:10.530Z,55.17
2018-03-22T05:43:10.524Z,54.94
2018-03-22T05:44:10.530Z,54.63
2018-03-22T05:45:10.537Z,54.86
2018-03-22T05:46:10.554Z,54.86
2018-03-22T05:47:10.550Z,53.18
2018-03-22T05:48:10.565Z,52.48
2018-03-22T05:49:10.580Z,52.65
2018-03-22T05:50:10.571Z,51.96
2018-03-22T05:51:10.478Z,51.25
2018-03-22T05:52:10.594Z,51.58
2018-03-22T05:53:10.595Z,50.57
2018-03-22T05:54:10.494Z,49.65
2018-03-22T05:55:10.506Z,49.88
2018-03-22T05:56:10.517Z,49.40
2018-03-22T05:57:10.627Z,48.64
2018-03-22T05:58:10.431Z,49.10
2018-03-22T05:59:10.542Z,48.68
2018-03-22T06:00:14.197Z,48.71
2018-03-22T06:01:10.550Z,48.96
2018-03-22T06:02:10.463Z,48.65
2018-03-22T06:03:10.585Z,49.27
2018-03-22T06:04:10.568Z,49.48
2018-03-22T06:05:10.590Z,50.14
2018-03-22T06:06:10.520Z,50.58
2018-03-22T06:07:10.490Z,50.92
2018-03-22T06:08:10.624Z,51.69
2018-03-22T06:09:10.514Z,51.28
2018-03-22T06:10:10.510Z,51.00
2018-03-22T06:11:10.538Z,49.40
2018-03-22T06:12:10.532Z,49.41
2018-03-22T06:13:10.540Z,50.03
2018-03-22T06:14:10.541Z,49.91
2018-03-22T06:15:10.554Z,50.14
2018-03-22T06:16:10.596Z,50.81
2018-03-22T06:17:10.571Z,51.41
2018-03-22T06:18:10.571Z,50.95
2018-03-22T06:19:10.578Z,50.98
2018-03-22T06:20:10.585Z,51.66
2018-03-22T06:21:10.594Z,51.18
2018-03-22T06:22:10.602Z,50.34
2018-03-22T06:23:10.610Z,50.47
2018-03-22T06:24:10.407Z,47.40
2018-03-22T06:25:10.526Z,48.47
2018-03-22T06:26:10.522Z,48.26
2018-03-22T06:27:10.525Z,48.66
2018-03-22T06:28:10.546Z,49.06
2018-03-22T06:29:10.458Z,49.17
2018-03-22T06:30:10.568Z,48.39
2018-03-22T06:31:10.561Z,47.90
2018-03-22T06:32:10.572Z,45.52
2018-03-22T06:33:10.582Z,46.13
2018-03-22T06:34:10.614Z,45.30
2018-03-22T06:35:10.598Z,46.45
2018-03-22T06:36:13.106Z,45.97
2018-03-22T06:37:10.610Z,46.45
2018-03-22T06:38:10.615Z,45.67
2018-03-22T06:39:10.730Z,45.02
2018-03-22T06:40:10.566Z,44.79
2018-03-22T06:41:10.539Z,45.34
2018-03-22T06:42:10.543Z,44.29
2018-03-22T06:43:10.552Z,43.71
2018-03-22T06:44:10.563Z,44.11
2018-03-22T06:45:10.562Z,44.14
2018-03-22T06:46:10.591Z,43.83
2018-03-22T06:47:10.583Z,44.56
2018-03-22T06:48:10.578Z,45.50
2018-03-22T06:49:10.585Z,45.24
2018-03-22T06:50:10.605Z,44.17
2018-03-22T06:51:10.602Z,43.98
2018-03-22T06:52:10.610Z,43.80
2018-03-22T06:53:10.618Z,44.45
2018-03-22T06:54:10.627Z,44.26
2018-03-22T06:55:10.531Z,44.21
2018-03-22T06:56:13.213Z,45.34
2018-03-22T06:57:12.550Z,43.49
2018-03-22T06:58:12.790Z,42.58
2018-03-22T06:59:10.563Z,42.31
2018-03-22T07:00:11.826Z,42.58
2018-03-22T07:01:10.610Z,42.74
2018-03-22T07:02:10.579Z,41.72
2018-03-22T07:03:10.629Z,41.91
2018-03-22T07:04:10.601Z,42.87
2018-03-22T07:05:10.601Z,41.97
2018-03-22T07:06:10.619Z,42.95
2018-03-22T07:07:10.614Z,43.30
2018-03-22T07:08:10.623Z,41.69
2018-03-22T07:09:10.643Z,40.88
2018-03-22T07:10:10.542Z,39.88
2018-03-22T07:11:10.546Z,39.89
2018-03-22T07:12:10.549Z,40.49
2018-03-22T07:13:10.566Z,41.22
2018-03-22T07:14:10.561Z,39.27
2018-03-22T07:15:10.570Z,37.59
2018-03-22T07:16:10.588Z,37.86
2018-03-22T07:17:10.597Z,37.98
2018-03-22T07:18:10.593Z,39.21
2018-03-22T07:19:10.611Z,37.54
2018-03-22T07:20:10.627Z,37.95
2018-03-22T07:21:10.614Z,35.89
2018-03-22T07:22:10.633Z,36.88
2018-03-22T07:23:10.622Z,37.18
2018-03-22T07:24:10.528Z,36.88
2018-03-22T07:25:10.567Z,37.66
2018-03-22T07:26:10.549Z,37.13
2018-03-22T07:27:13.362Z,38.67
2018-03-22T07:28:10.562Z,37.79
2018-03-22T07:29:10.577Z,36.48
2018-03-22T07:30:10.603Z,37.73
2018-03-22T07:31:13.523Z,37.97
2018-03-22T07:32:10.628Z,39.79
2018-03-22T07:33:10.594Z,37.91
2018-03-22T07:34:10.605Z,37.33
2018-03-22T07:35:10.621Z,41.57
2018-03-22T07:36:10.626Z,40.27
2018-03-22T07:37:10.633Z,43.40
2018-03-22T07:38:10.534Z,41.24
2018-03-22T07:39:10.542Z,40.76
2018-03-22T07:40:10.485Z,41.21
2018-03-22T07:41:10.460Z,40.13
2018-03-22T07:42:10.458Z,41.94
2018-03-22T07:43:10.483Z,41.10
2018-03-22T07:44:10.471Z,40.76
2018-03-22T07:45:10.585Z,41.25
2018-03-22T07:46:10.605Z,40.58
2018-03-22T07:47:10.606Z,41.65
2018-03-22T07:48:10.609Z,41.33
2018-03-22T07:49:11.612Z,42.34
2018-03-22T07:50:10.618Z,43.09
2018-03-22T07:51:10.629Z,41.27
2018-03-22T07:52:10.553Z,42.25
2018-03-22T07:53:10.443Z,42.65
2018-03-22T07:54:10.446Z,39.55
2018-03-22T07:55:10.591Z,40.10
2018-03-22T07:56:10.471Z,42.37
2018-03-22T07:57:10.569Z,40.95
2018-03-22T07:58:10.584Z,41.38
2018-03-22T07:59:10.582Z,40.10
2018-03-22T08:00:11.834Z,40.98
2018-03-22T08:01:13.195Z,41.15
2018-03-22T08:02:10.607Z,40.42
2018-03-22T08:03:10.526Z,39.69
2018-03-22T08:04:10.661Z,40.91
2018-03-22T08:05:10.630Z,39.41
2018-03-22T08:06:10.634Z,39.82
2018-03-22T08:07:10.594Z,40.19
2018-03-22T08:08:10.559Z,41.95
2018-03-22T08:09:10.658Z,40.03
2018-03-22T08:10:10.457Z,38.74
2018-03-22T08:11:10.471Z,41.98
2018-03-22T08:12:10.494Z,39.44
2018-03-22T08:13:10.593Z,40.83
2018-03-22T08:14:10.599Z,39.95
2018-03-22T08:15:10.598Z,38.71
2018-03-22T08:16:10.602Z,41.85
2018-03-22T08:17:10.615Z,38.68
2018-03-22T08:18:10.617Z,37.50
2018-03-22T08:19:10.626Z,37.46
2018-03-22T08:20:10.647Z,38.00
2018-03-22T08:21:10.636Z,38.09
2018-03-22T08:22:10.658Z,40.57
2018-03-22T08:23:10.658Z,40.41
2018-03-22T08:24:10.674Z,38.03
2018-03-22T08:25:11.677Z,40.06
2018-03-22T08:26:10.601Z,37.26
2018-03-22T08:27:10.606Z,36.87
2018-03-22T08:28:10.609Z,37.63
2018-03-22T08:29:10.625Z,39.15
2018-03-22T08:30:10.635Z,37.79
2018-03-22T08:31:10.633Z,38.43
2018-03-22T08:32:10.523Z,37.47
2018-03-22T08:33:10.522Z,39.37
2018-03-22T08:34:10.542Z,41.77
2018-03-22T08:35:10.550Z,39.98
2018-03-22T08:36:13.330Z,36.95
2018-03-22T08:37:10.563Z,37.16
2018-03-22T08:38:10.571Z,36.76
2018-03-22T08:39:10.687Z,35.82
2018-03-22T08:40:10.678Z,36.01
2018-03-22T08:41:10.645Z,35.99
2018-03-22T08:42:10.693Z,35.46
2018-03-22T08:43:10.603Z,36.25
2018-03-22T08:44:10.611Z,36.73
2018-03-22T08:45:10.513Z,35.91
2018-03-22T08:46:10.641Z,36.60
2018-03-22T08:47:13.517Z,36.61
2018-03-22T08:48:10.528Z,36.02
2018-03-22T08:49:10.649Z,35.89
2018-03-22T08:50:10.655Z,36.86
2018-03-22T08:51:10.657Z,35.32
2018-03-22T08:52:10.675Z,38.50
2018-03-22T08:53:10.577Z,39.21
2018-03-22T08:54:10.570Z,35.77
2018-03-22T08:55:10.689Z,36.58
2018-03-22T08:56:10.596Z,37.14
2018-03-22T08:57:10.494Z,34.16
2018-03-22T08:58:10.606Z,34.55
2018-03-22T08:59:10.710Z,37.26
2018-03-22T09:00:11.970Z,33.37
2018-03-22T09:01:10.624Z,33.31
2018-03-22T09:02:10.638Z,35.84
2018-03-22T09:03:10.643Z,33.06
2018-03-22T09:04:10.648Z,33.34
2018-03-22T09:05:10.653Z,35.78
2018-03-22T09:06:10.703Z,31.43
2018-03-22T09:07:10.666Z,35.99
2018-03-22T09:08:10.690Z,36.06
2018-03-22T09:09:10.687Z,35.72
2018-03-22T09:10:10.585Z,37.16
2018-03-22T09:11:10.600Z,34.11
2018-03-22T09:12:13.681Z,31.14
2018-03-22T09:13:10.616Z,30.52
2018-03-22T09:14:10.652Z,28.85
2018-03-22T09:15:10.733Z,32.10
2018-03-22T09:16:10.634Z,34.52
2018-03-22T09:17:10.638Z,34.66
2018-03-22T09:18:13.534Z,35.33
2018-03-22T09:19:10.649Z,32.17
2018-03-22T09:20:10.674Z,33.85
2018-03-22T09:21:10.665Z,31.09
2018-03-22T09:22:15.264Z,33.88
2018-03-22T09:23:15.285Z,33.29
2018-03-22T09:24:10.394Z,32.08
2018-03-22T09:25:10.603Z,33.79
2018-03-22T09:26:10.602Z,37.61
2018-03-22T09:27:10.629Z,33.61
2018-03-22T09:28:10.630Z,31.79
2018-03-22T09:29:10.623Z,35.56
2018-03-22T09:30:10.639Z,32.47
2018-03-22T09:31:10.640Z,29.91
2018-03-22T09:32:10.655Z,29.39
2018-03-22T09:33:10.668Z,30.27
2018-03-22T09:34:13.451Z,31.45
2018-03-22T09:35:10.656Z,28.85
2018-03-22T09:36:11.435Z,31.12
2018-03-22T09:37:10.685Z,30.72
2018-03-22T09:38:10.694Z,28.96
2018-03-22T09:39:10.700Z,30.98
2018-03-22T09:40:10.711Z,31.52
2018-03-22T09:41:10.505Z,28.88
2018-03-22T09:42:12.481Z,31.15
2018-03-22T09:43:10.731Z,29.47
2018-03-22T09:44:10.669Z,31.94
2018-03-22T09:45:10.542Z,31.14
2018-03-22T09:46:10.641Z,35.09
2018-03-22T09:47:10.645Z,29.60
2018-03-22T09:48:10.709Z,31.97
2018-03-22T09:49:10.677Z,31.04
2018-03-22T09:50:10.684Z,29.04
2018-03-22T09:51:10.696Z,31.65
2018-03-22T09:52:10.687Z,29.81
2018-03-22T09:53:13.105Z,33.56
2018-03-22T09:54:10.698Z,29.60
2018-03-22T09:55:10.704Z,29.26
2018-03-22T09:56:10.514Z,30.13
2018-03-22T09:57:10.653Z,31.36
2018-03-22T09:58:10.622Z,33.03
2018-03-22T09:59:10.634Z,29.54
2018-03-22T10:00:11.890Z,29.47
2018-03-22T10:01:10.651Z,28.56
2018-03-22T10:02:10.653Z,32.48
2018-03-22T10:03:10.671Z,31.06
2018-03-22T10:04:10.669Z,29.14
2018-03-22T10:05:10.676Z,31.30
2018-03-22T10:06:10.697Z,29.74
2018-03-22T10:07:10.690Z,30.91
2018-03-22T10:08:10.707Z,29.51
2018-03-22T10:09:10.718Z,32.88
2018-03-22T10:10:10.738Z,29.52
2018-03-22T10:11:10.722Z,29.13
2018-03-22T10:12:10.626Z,28.42
2018-03-22T10:13:10.734Z,26.04
2018-03-22T10:14:10.642Z,25.88
2018-03-22T10:15:10.658Z,29.36
2018-03-22T10:16:10.659Z,31.81
2018-03-22T10:17:10.665Z,30.92
2018-03-22T10:18:10.675Z,30.36
2018-03-22T10:19:10.698Z,28.81
2018-03-22T10:20:10.694Z,26.87
2018-03-22T10:21:10.598Z,28.90
2018-03-22T10:22:10.820Z,26.42
2018-03-22T10:23:10.711Z,27.32
2018-03-22T10:24:10.722Z,30.37
2018-03-22T10:25:10.738Z,29.90
2018-03-22T10:26:10.745Z,29.30
2018-03-22T10:27:10.633Z,27.51
2018-03-22T10:28:10.645Z,27.27
2018-03-22T10:29:10.645Z,26.79
2018-03-22T10:30:10.652Z,30.29
2018-03-22T10:31:10.566Z,26.78
2018-03-22T10:32:10.674Z,26.29
2018-03-22T10:33:10.673Z,29.00
2018-03-22T10:34:10.685Z,28.18
2018-03-22T10:35:10.698Z,30.20
2018-03-22T10:36:10.278Z,27.30
2018-03-22T10:37:10.707Z,29.00
2018-03-22T10:38:10.729Z,26.42
2018-03-22T10:39:10.714Z,26.99
2018-03-22T10:40:10.731Z,28.36
2018-03-22T10:41:10.738Z,26.05
2018-03-22T10:42:10.642Z,27.68
2018-03-22T10:43:10.650Z,28.15
2018-03-22T10:44:10.655Z,28.66
2018-03-22T10:45:10.703Z,26.83
2018-03-22T10:46:10.679Z,25.86
2018-03-22T10:47:10.570Z,30.48
2018-03-22T10:48:10.683Z,28.92
2018-03-22T10:49:10.694Z,27.04
2018-03-22T10:50:10.698Z,31.32
2018-03-22T10:51:10.715Z,32.28
2018-03-22T10:52:10.714Z,30.13
2018-03-22T10:53:10.717Z,25.77
2018-03-22T10:54:10.730Z,30.44
2018-03-22T10:55:10.729Z,30.03
2018-03-22T10:56:10.743Z,25.99
2018-03-22T10:57:10.754Z,28.05
2018-03-22T10:58:10.665Z,26.12
2018-03-22T10:59:10.664Z,28.51
2018-03-22T11:00:11.908Z,25.85
2018-03-22T11:01:10.686Z,27.72
2018-03-22T11:02:10.677Z,26.18
2018-03-22T11:03:10.694Z,30.87
2018-03-22T11:04:10.902Z,25.81
2018-03-22T11:05:10.711Z,25.83
2018-03-22T11:06:10.711Z,32.28
2018-03-22T11:07:10.733Z,28.14
2018-03-22T11:08:10.728Z,27.24
2018-03-22T11:09:10.739Z,24.98
2018-03-22T11:10:10.755Z,25.79
2018-03-22T11:11:10.744Z,32.70
2018-03-22T11:12:10.754Z,28.35
2018-03-22T11:13:10.662Z,26.86
2018-03-22T11:14:10.668Z,27.11
2018-03-22T11:15:10.679Z,24.90
2018-03-22T11:16:10.685Z,25.19
2018-03-22T11:17:10.699Z,22.33
2018-03-22T11:18:10.703Z,21.27
2018-03-22T11:19:12.099Z,24.83
2018-03-22T11:20:10.726Z,28.61
2018-03-22T11:21:10.726Z,26.34
2018-03-22T11:22:10.726Z,27.71
2018-03-22T11:23:10.733Z,25.90
2018-03-22T11:24:10.753Z,24.31
2018-03-22T11:25:10.749Z,22.34
2018-03-22T11:26:10.767Z,23.47
2018-03-22T11:27:10.566Z,25.25
2018-03-22T11:28:10.672Z,28.84
2018-03-22T11:29:10.702Z,29.12
2018-03-22T11:30:10.689Z,26.56
2018-03-22T11:31:10.690Z,25.63
2018-03-22T11:32:10.698Z,24.65
2018-03-22T11:33:10.711Z,22.78
2018-03-22T11:34:10.719Z,28.80
2018-03-22T11:35:10.722Z,25.92
2018-03-22T11:36:10.729Z,22.77
2018-03-22T11:37:10.742Z,22.91
2018-03-22T11:38:10.752Z,22.80
2018-03-22T11:39:10.759Z,23.22
2018-03-22T11:40:10.749Z,27.26
2018-03-22T11:41:10.762Z,27.57
2018-03-22T11:42:10.782Z,24.18
2018-03-22T11:43:10.691Z,25.46
2018-03-22T11:44:10.678Z,28.86
2018-03-22T11:45:10.599Z,29.85
2018-03-22T11:46:13.336Z,26.90
2018-03-22T11:47:10.702Z,25.81
2018-03-22T11:48:10.712Z,24.15
2018-03-22T11:49:10.735Z,25.70
2018-03-22T11:50:10.625Z,25.75
2018-03-22T11:51:10.730Z,25.10
2018-03-22T11:52:10.740Z,24.99
2018-03-22T11:53:10.742Z,24.48
2018-03-22T11:54:10.755Z,25.92
2018-03-22T11:55:16.518Z,28.59
2018-03-22T11:56:19.565Z,22.26
2018-03-22T11:57:10.779Z,25.71
2018-03-22T11:58:18.191Z,23.70
2018-03-22T11:59:10.692Z,24.18
2018-03-22T12:00:11.951Z,24.37
2018-03-22T12:01:10.703Z,24.46
2018-03-22T12:02:10.721Z,22.71
2018-03-22T12:03:10.713Z,24.77
2018-03-22T12:04:10.753Z,25.17
2018-03-22T12:05:10.733Z,31.37
2018-03-22T12:06:10.750Z,23.15
2018-03-22T12:07:10.754Z,25.57
2018-03-22T12:08:10.758Z,27.53
2018-03-22T12:09:10.761Z,26.64
2018-03-22T12:10:10.775Z,30.46
2018-03-22T12:11:13.793Z,26.40
2018-03-22T12:12:10.692Z,28.54
2018-03-22T12:13:10.799Z,25.11
2018-03-22T12:14:10.718Z,26.95
2018-03-22T12:15:10.710Z,25.20
2018-03-22T12:16:10.713Z,23.05
2018-03-22T12:18:31.692Z,30.72
2018-03-22T12:19:28.623Z,29.88
2018-03-22T12:20:28.552Z,23.56
2018-03-22T12:21:28.633Z,24.66
2018-03-22T12:22:28.531Z,25.15
2018-03-22T12:23:28.653Z,26.77
2018-03-22T12:24:28.725Z,22.89
2018-03-22T12:25:28.559Z,23.68
2018-03-22T12:26:28.582Z,23.96
2018-03-22T12:27:28.678Z,24.13
2018-03-22T12:28:28.696Z,26.10
2018-03-22T12:29:28.587Z,27.50
2018-03-22T12:30:28.598Z,24.98
2018-03-22T12:31:28.604Z,24.93
2018-03-22T12:32:28.614Z,24.88
2018-03-22T12:33:28.643Z,25.59
2018-03-22T12:34:28.640Z,20.89
2018-03-22T12:35:28.632Z,25.42
2018-03-22T12:36:28.651Z,21.89
2018-03-22T12:37:28.645Z,22.26
2018-03-22T12:38:28.650Z,22.51
2018-03-22T12:39:28.781Z,22.60
2018-03-22T12:40:28.662Z,28.05
2018-03-22T12:41:28.607Z,25.21
2018-03-22T12:42:28.575Z,24.57
2018-03-22T12:43:28.623Z,20.96
2018-03-22T12:44:28.624Z,23.35
2018-03-22T12:45:28.627Z,22.18
2018-03-22T12:46:28.621Z,21.87
2018-03-22T12:47:28.607Z,25.53
2018-03-22T12:48:28.628Z,26.74
2018-03-22T12:49:28.635Z,24.68
2018-03-22T12:50:28.551Z,22.27
2018-03-22T12:51:28.670Z,25.51
2018-03-22T12:52:28.655Z,22.91
2018-03-22T12:53:28.788Z,28.39